createdAt,value
2022-09-23T03:02:37.329Z,4.20
2022-09-23T03:07:49.175Z,4.20
2022-09-23T03:12:58.558Z,4.20
2022-09-23T03:18:10.511Z,4.20
2022-09-23T03:23:14.122Z,4.20
2022-09-23T03:28:17.943Z,4.30
2022-09-23T03:33:28.490Z,4.10
2022-09-23T03:38:36.716Z,4.10
2022-09-23T03:43:39.820Z,4.00
2022-09-23T03:48:42.873Z,4.00
2022-09-23T03:53:44.489Z,4.00
2022-09-23T03:58:46.145Z,4.00
2022-09-23T04:03:49.205Z,4.00
2022-09-23T04:08:50.903Z,4.00
2022-09-23T04:13:52.570Z,4.00
2022-09-23T04:18:55.571Z,4.00
2022-09-23T04:23:57.332Z,4.10
2022-09-23T04:28:59.283Z,4.20
2022-09-23T04:34:02.444Z,4.20
2022-09-23T04:39:04.637Z,4.30
2022-09-23T04:44:06.464Z,4.40
2022-09-23T04:49:09.532Z,4.40
2022-09-23T04:54:12.110Z,4.50
2022-09-23T04:59:13.906Z,4.60
2022-09-23T05:04:19.544Z,4.70
2022-09-23T05:09:21.229Z,4.80
2022-09-23T05:14:23.768Z,4.80
2022-09-23T05:19:27.325Z,4.90
2022-09-23T05:24:28.977Z,5.00
2022-09-23T05:29:30.640Z,5.00
2022-09-23T05:34:33.729Z,5.10
2022-09-23T05:39:35.475Z,5.20
2022-09-23T05:44:38.430Z,5.30
2022-09-23T05:49:58.701Z,5.30
2022-09-23T05:55:01.126Z,5.40
2022-09-23T06:00:03.908Z,5.60
2022-09-23T06:05:07.615Z,5.70
2022-09-23T06:10:09.483Z,5.80
2022-09-23T06:15:11.368Z,6.00
2022-09-23T06:20:14.511Z,6.10
2022-09-23T06:25:16.549Z,6.30
2022-09-23T06:30:18.205Z,6.50
2022-09-23T06:35:27.432Z,6.60
2022-09-23T06:40:29.489Z,6.70
2022-09-23T06:45:31.222Z,6.80
2022-09-23T06:50:34.277Z,6.90
2022-09-23T06:55:35.953Z,7.00
2022-09-23T07:00:37.735Z,7.10
2022-09-23T07:05:41.029Z,7.20
2022-09-23T07:10:42.714Z,7.30
2022-09-23T07:15:49.448Z,7.50
2022-09-23T07:20:53.231Z,7.60
2022-09-23T07:25:58.506Z,7.70
2022-09-23T07:31:03.879Z,7.80
2022-09-23T07:36:09.574Z,7.90
2022-09-23T07:41:13.744Z,8.10
2022-09-23T07:46:17.492Z,8.20
2022-09-23T07:51:25.079Z,8.20
2022-09-23T07:56:30.132Z,8.30
2022-09-23T08:01:34.299Z,8.40
2022-09-23T08:06:40.768Z,8.60
2022-09-23T08:11:42.587Z,8.70
2022-09-23T08:16:45.085Z,8.90
2022-09-23T08:21:48.124Z,9.10
2022-09-23T08:26:51.256Z,9.40
2022-09-23T08:31:53.735Z,9.60
2022-09-23T08:36:56.826Z,9.80
2022-09-23T08:42:16.130Z,10.10
2022-09-23T08:47:23.209Z,10.30
2022-09-23T08:52:32.650Z,10.70
2022-09-23T08:58:23.404Z,11.10
2022-09-23T09:03:22.155Z,11.40
2022-09-23T09:08:32.434Z,11.90
2022-09-23T09:13:37.663Z,12.30
2022-09-23T09:18:42.894Z,12.70
2022-09-23T09:23:52.160Z,13.20
2022-09-23T09:29:02.531Z,13.60
2022-09-23T09:34:24.212Z,14.10
2022-09-23T09:39:27.702Z,14.50
2022-09-23T09:44:37.024Z,14.60
2022-09-23T09:49:43.608Z,14.90
2022-09-23T09:54:46.696Z,15.00
2022-09-23T09:59:48.359Z,15.10
2022-09-23T10:04:56.960Z,15.30
2022-09-23T10:10:31.932Z,15.40
2022-09-23T10:15:44.915Z,15.60
2022-09-23T10:20:48.289Z,15.90
2022-09-23T10:25:59.072Z,16.00
2022-09-23T10:31:05.258Z,16.00
2022-09-23T10:36:09.742Z,16.20
2022-09-23T10:41:24.529Z,16.50
2022-09-23T10:46:28.667Z,16.80
2022-09-23T10:51:35.985Z,16.90
2022-09-23T10:56:42.796Z,16.90
2022-09-23T11:01:51.632Z,17.00
2022-09-23T11:07:16.108Z,17.20
2022-09-23T11:12:30.494Z,17.30
2022-09-23T11:17:49.517Z,17.20
2022-09-23T11:23:15.584Z,17.20
2022-09-23T11:28:53.045Z,17.40
2022-09-23T11:34:20.622Z,17.60
2022-09-23T11:39:26.809Z,17.90
2022-09-23T11:44:35.447Z,18.10
2022-09-23T11:49:40.993Z,18.10
2022-09-23T11:54:45.680Z,18.00
2022-09-23T11:59:53.882Z,18.10
2022-09-23T12:05:01.565Z,17.90
2022-09-23T12:10:07.265Z,18.00
2022-09-23T12:15:20.101Z,18.10
2022-09-23T12:20:45.680Z,18.20
2022-09-23T12:25:48.332Z,18.40
2022-09-23T12:30:54.045Z,18.40
2022-09-23T12:36:02.511Z,18.50
2022-09-23T12:41:23.208Z,18.40
2022-09-23T12:46:27.564Z,18.30
2022-09-23T12:51:30.547Z,18.30
2022-09-23T12:57:00.445Z,18.30
2022-09-23T13:07:32.141Z,18.20
2022-09-23T13:12:37.829Z,18.00
2022-09-23T13:17:40.578Z,17.90
2022-09-23T13:23:16.754Z,17.80
2022-09-23T13:28:26.873Z,17.90
2022-09-23T13:33:34.727Z,17.90
2022-09-23T13:38:37.804Z,17.80
2022-09-23T13:43:42.334Z,17.60
2022-09-23T13:48:45.780Z,17.30
2022-09-23T13:53:54.480Z,16.90
2022-09-23T13:59:20.412Z,16.80
2022-09-23T14:04:26.145Z,16.90
2022-09-23T14:09:30.178Z,17.00
2022-09-23T14:14:35.343Z,17.40
2022-09-23T14:19:37.509Z,17.60
2022-09-23T14:24:40.703Z,17.50
2022-09-23T14:29:44.746Z,17.40
2022-09-23T14:34:50.097Z,17.30
2022-09-23T14:39:57.565Z,17.50
2022-09-23T14:44:59.591Z,17.60
2022-09-23T14:50:03.871Z,17.70
2022-09-23T14:55:15.635Z,17.50
2022-09-23T15:00:19.585Z,17.50
2022-09-23T15:05:32.087Z,17.40
2022-09-23T15:10:37.789Z,17.30
2022-09-23T15:15:41.885Z,17.10
2022-09-23T15:20:49.684Z,16.90
2022-09-23T15:25:53.024Z,16.70
2022-09-23T15:30:54.759Z,16.80
2022-09-23T15:35:56.512Z,16.80
2022-09-23T15:40:59.610Z,16.80
2022-09-23T15:46:05.983Z,16.70
2022-09-23T15:51:08.405Z,16.60
2022-09-23T15:56:11.486Z,16.50
2022-09-23T16:01:20.838Z,16.50
2022-09-23T16:06:23.144Z,16.50
2022-09-23T16:11:28.869Z,16.30
2022-09-23T16:16:31.088Z,16.20
2022-09-23T16:21:33.596Z,15.90
2022-09-23T16:26:36.998Z,15.70
2022-09-23T16:31:39.047Z,15.60
2022-09-23T16:36:43.185Z,15.40
2022-09-23T16:41:46.313Z,15.30
2022-09-23T16:46:48.005Z,15.00
2022-09-23T16:51:49.687Z,14.80
2022-09-23T16:56:52.735Z,14.50
2022-09-23T17:01:54.506Z,14.30
2022-09-23T17:06:56.234Z,14.20
2022-09-23T17:12:11.027Z,14.00
2022-09-23T17:17:12.738Z,13.70
2022-09-23T17:22:14.389Z,13.50
2022-09-23T17:27:17.538Z,13.40
2022-09-23T17:32:19.279Z,13.30
2022-09-23T17:37:21.035Z,13.20
2022-09-23T17:42:24.190Z,13.10
2022-09-23T17:47:26.157Z,13.10
2022-09-23T17:52:28.003Z,13.00
2022-09-23T17:57:31.191Z,12.80
2022-09-23T18:02:33.014Z,12.80
2022-09-23T18:07:34.761Z,12.70
2022-09-23T18:12:37.904Z,12.50
2022-09-23T18:17:39.705Z,12.40
2022-09-23T18:22:41.397Z,12.30
2022-09-23T18:27:44.450Z,12.20
2022-09-23T18:32:46.251Z,12.10
2022-09-23T18:37:48.156Z,12.00
2022-09-23T18:42:54.560Z,12.00
2022-09-23T18:48:02.673Z,12.00
2022-09-23T18:53:04.460Z,11.90
2022-09-23T18:58:07.567Z,11.80
2022-09-23T19:03:09.268Z,11.80
2022-09-23T19:08:11.797Z,11.60
2022-09-23T19:13:15.288Z,11.50
2022-09-23T19:18:16.996Z,11.50
2022-09-23T19:23:19.361Z,11.30
2022-09-23T19:28:22.621Z,11.20
2022-09-23T19:33:25.147Z,11.10
2022-09-23T19:38:26.933Z,11.00
2022-09-23T19:43:30.013Z,11.00
2022-09-23T19:48:31.683Z,10.90
2022-09-23T19:53:33.356Z,10.70
2022-09-23T19:58:36.404Z,10.60
2022-09-23T20:03:38.117Z,10.50
2022-09-23T20:08:40.187Z,10.50
2022-09-23T20:13:45.213Z,10.40
2022-09-23T20:18:51.401Z,10.30
2022-09-23T20:24:05.800Z,10.20
2022-09-23T20:29:08.967Z,10.10
2022-09-23T20:34:11.128Z,10.00
2022-09-23T20:39:13.307Z,9.90
2022-09-23T20:44:16.551Z,9.90
2022-09-23T20:49:18.483Z,9.80
2022-09-23T20:54:21.820Z,9.80
2022-09-23T20:59:26.526Z,9.70
2022-09-23T21:04:28.792Z,9.60
2022-09-23T21:09:30.571Z,9.60
2022-09-23T21:14:33.874Z,9.50
